Pietro Novelli — IOTQ — position and weather

sailwx.info

Track history (hours):
 
Tides and Currents Weather Stations Pressure Air Temp Water Temp Dewpoint Dewpoint Depression Visibility Wind Speed Wind Dir Waves Ship Positions

Pietro Novelli

Last reported at 2016-Jul-27 05:34 UTC. Time now 2016-Jul-27 05:46 UTC.
Position N 38°18' E 015°14'.

Length 91 m; draft 3.7 m.

Type: Ship. MMSI: 247000300.

Date/timePositionNaut miles runAvg speedWind from/ knotsBaromVisibWave heightAir tempDewpointWater temp
2016-Jul-27 05:34N 38°18' E 015°14'5 5.3
2016-Jul-27 04:33N 38°13' E 015°15'0 0.0
2016-Jul-27 03:33N 38°13' E 015°15'0 0.0
2016-Jul-27 02:32N 38°13' E 015°15'0 0.0
2016-Jul-27 01:32N 38°13' E 015°15'0 0.0
2016-Jul-27 00:32N 38°13' E 015°15'0 0.0
2016-Jul-26 23:25N 38°13' E 015°15'0 0.0
2016-Jul-26 22:16N 38°13' E 015°15'0 0.0
2016-Jul-26 21:33N 38°13' E 015°15'0 0.0
2016-Jul-26 20:33N 38°13' E 015°15'0 0.0
2016-Jul-26 18:31N 38°13' E 015°15'0 0.5
2016-Jul-26 17:33N 38°13' E 015°15'1212.3
2016-Jul-26 16:33N 38°22' E 015°05'8 8.5
2016-Jul-26 15:33N 38°28' E 014°57'6 5.8
2016-Jul-26 14:33N 38°33' E 014°53'7 7.4
2016-Jul-26 13:33N 38°36' E 015°02'5 5.4
2016-Jul-26 12:32N 38°41' E 015°06'10 9.7
2016-Jul-26 11:33N 38°48' E 015°14'3 3.1
2016-Jul-26 10:33N 38°46' E 015°11'10 9.7
2016-Jul-26 09:33N 38°38' E 015°05'1110.7
2016-Jul-26 08:33N 38°33' E 014°52'6 6.0
2016-Jul-26 07:28N 38°28' E 014°57'4 4.0
2016-Jul-26 06:33N 38°25' E 014°59'1413.7
2016-Jul-26 05:33N 38°18' E 015°14'5 0.4
2016-Jul-25 18:26N 38°13' E 015°15'3 3.2
2016-Jul-25 17:33N 38°16' E 015°16'1413.8
2016-Jul-25 16:33N 38°24' E 015°02'6 5.5
2016-Jul-25 15:33N 38°28' E 014°57'7 6.5
2016-Jul-25 14:33N 38°33' E 014°52'0 0.0
2016-Jul-25 08:34N 38°33' E 014°52'6 6.1
2016-Jul-25 07:30N 38°28' E 014°57'4 3.7
2016-Jul-25 06:33N 38°25' E 014°59'1413.9
2016-Jul-25 05:33N 38°18' E 015°14'5 4.7
2016-Jul-25 04:33N 38°13' E 015°15'0 0.0
2016-Jul-25 03:33N 38°13' E 015°15'0 0.0
2016-Jul-25 02:33N 38°13' E 015°15'0 0.0
2016-Jul-25 01:33N 38°13' E 015°15'0 0.0
2016-Jul-25 00:33N 38°13' E 015°15'0 0.0
2016-Jul-24 23:33N 38°13' E 015°15'0 0.0
2016-Jul-24 22:33N 38°13' E 015°15'0 0.0
2016-Jul-24 21:34N 38°13' E 015°15'0 0.0
2016-Jul-24 20:33N 38°13' E 015°15'0 0.0
2016-Jul-24 19:33N 38°13' E 015°15'0 0.0
2016-Jul-24 18:33N 38°13' E 015°15'2 1.8
2016-Jul-24 17:33N 38°14' E 015°16'1313.1
2016-Jul-24 16:34N 38°23' E 015°03'7 7.1
2016-Jul-24 15:33N 38°28' E 014°58'4 4.0
2016-Jul-24 14:33N 38°32' E 014°57'16 7.3
2016-Jul-24 12:19N 38°33' E 014°36'1113.2
2016-Jul-24 11:29N 38°32' E 014°22'5 5.3
2016-Jul-24 10:33N 38°32' E 014°28'19 9.1
2016-Jul-24 08:27N 38°33' E 014°53'7 7.5
2016-Jul-24 07:33N 38°28' E 014°58'3 3.3
2016-Jul-24 06:33N 38°25' E 014°59'1414.2
2016-Jul-24 05:34N 38°17' E 015°14'4 4.3
2016-Jul-24 04:33N 38°13' E 015°15'0 0.0
2016-Jul-24 03:33N 38°13' E 015°15'0 0.0
2016-Jul-24 02:33N 38°13' E 015°15'0 0.0
2016-Jul-24 01:33N 38°13' E 015°15'0 0.0
2016-Jul-24 00:33N 38°13' E 015°15'0 0.0
2016-Jul-23 23:33N 38°13' E 015°15'0 0.0
2016-Jul-23 22:33N 38°13' E 015°15'0 0.0
2016-Jul-23 21:33N 38°13' E 015°15'0 0.0
2016-Jul-23 20:33N 38°13' E 015°15'0 0.0
2016-Jul-23 19:33N 38°13' E 015°15'0 0.0
2016-Jul-23 18:34N 38°13' E 015°15'1 0.7
2016-Jul-23 17:34N 38°13' E 015°15'1212.4
2016-Jul-23 16:33N 38°22' E 015°05'8 8.3
2016-Jul-23 15:33N 38°28' E 014°57'6 6.3
2016-Jul-23 14:33N 38°33' E 014°53'5 4.7
2016-Jul-23 13:33N 38°33' E 014°47'8 8.5
2016-Jul-23 12:34N 38°33' E 014°36'1110.1
2016-Jul-23 11:29N 38°32' E 014°22'10 9.8
2016-Jul-23 10:27N 38°34' E 014°35'12 9.8
2016-Jul-23 09:15N 38°33' E 014°50'3 3.5
2016-Jul-23 08:26N 38°33' E 014°53'6 5.9
2016-Jul-23 07:29N 38°28' E 014°57'6 6.6
2016-Jul-23 06:33N 38°23' E 015°02'14 7.0
2016-Jul-23 04:33N 38°13' E 015°15'0 0.0
2016-Jul-23 03:33N 38°13' E 015°15'0 0.0
2016-Jul-23 02:33N 38°13' E 015°15'0 0.0
2016-Jul-23 01:33N 38°13' E 015°15'0 0.0
2016-Jul-23 00:33N 38°13' E 015°15'0 0.0
2016-Jul-22 23:33N 38°13' E 015°15'0 0.0
2016-Jul-22 22:33N 38°13' E 015°15'0 0.0
2016-Jul-22 21:33N 38°13' E 015°15'0 0.0
2016-Jul-22 20:33N 38°13' E 015°15'0 0.0
2016-Jul-22 19:33N 38°13' E 015°15'0 0.0
2016-Jul-22 18:33N 38°13' E 015°15'1 0.9
2016-Jul-22 17:33N 38°13' E 015°16'1212.5
2016-Jul-22 16:33N 38°22' E 015°04'8 8.0
2016-Jul-22 15:34N 38°28' E 014°58'5 4.7
2016-Jul-22 14:33N 38°33' E 014°56'5 5.0
2016-Jul-22 13:31N 38°36' E 015°00'7 7.8
2016-Jul-22 12:33N 38°42' E 015°07'9 8.6
2016-Jul-22 11:33N 38°48' E 015°15'3 2.7
2016-Jul-22 10:33N 38°47' E 015°11'10 9.9
2016-Jul-22 09:33N 38°38' E 015°05'10 8.2
2016-Jul-22 08:20N 38°33' E 014°54'5 5.7
2016-Jul-22 07:26N 38°28' E 014°57'20 7.0
2016-Jul-22 04:33N 38°13' E 015°15'0 0.0
2016-Jul-22 03:33N 38°13' E 015°15'0 0.0
2016-Jul-22 02:33N 38°13' E 015°15'0 0.0
2016-Jul-22 01:33N 38°13' E 015°15'0 0.0
2016-Jul-22 00:33N 38°13' E 015°15'0 0.0
2016-Jul-21 23:33N 38°13' E 015°15'0 0.0
2016-Jul-21 22:33N 38°13' E 015°15'0 0.0
2016-Jul-21 21:33N 38°13' E 015°15'0 0.0
2016-Jul-21 20:33N 38°13' E 015°15'0 0.0
2016-Jul-21 19:33N 38°13' E 015°15'0 0.0
2016-Jul-21 18:33N 38°13' E 015°15'1 1.1
2016-Jul-21 17:33N 38°14' E 015°16'1212.4
2016-Jul-21 16:33N 38°22' E 015°04'8 8.1
2016-Jul-21 15:33N 38°28' E 014°58'5 5.4
2016-Jul-21 14:34N 38°33' E 014°54'6 5.3
2016-Jul-21 13:30N 38°33' E 014°47'9 9.8
2016-Jul-21 12:33N 38°34' E 014°35'1010.5
2016-Jul-21 11:34N 38°32' E 014°22'8 7.9
2016-Jul-21 10:33N 38°33' E 014°32'16 7.9
2016-Jul-21 08:32N 38°33' E 014°52'7 6.6
2016-Jul-21 07:33N 38°28' E 014°57'4 4.0
2016-Jul-21 06:33N 38°25' E 014°60'1413.7
2016-Jul-21 05:33N 38°18' E 015°14'4 4.5
2016-Jul-21 04:33N 38°13' E 015°15'0 0.0
2016-Jul-21 03:27N 38°13' E 015°15'0 0.0
2016-Jul-20 22:16N 38°13' E 015°15'0 0.0
2016-Jul-20 19:33N 38°13' E 015°15'0 0.0
2016-Jul-20 18:33N 38°13' E 015°15'2 1.9
2016-Jul-20 17:33N 38°14' E 015°16'1413.8
2016-Jul-20 16:33N 38°23' E 015°03'7 6.5
2016-Jul-20 15:33N 38°28' E 014°57'18 7.4
2016-Jul-20 13:06N 38°34' E 014°35'0 0.1
2016-Jul-20 10:26N 38°34' E 014°35'17 8.5
2016-Jul-20 08:30N 38°32' E 014°56'5 4.8
2016-Jul-20 07:33N 38°28' E 014°58'3 3.4
2016-Jul-20 06:34N 38°25' E 014°60'1413.4
2016-Jul-20 05:33N 38°18' E 015°14'5 4.6
2016-Jul-20 04:33N 38°13' E 015°15'0 0.0
2016-Jul-20 03:33N 38°13' E 015°15'0 0.0
2016-Jul-20 02:33N 38°13' E 015°15'0 0.0
2016-Jul-20 01:33N 38°13' E 015°15'0 0.0
2016-Jul-20 00:33N 38°13' E 015°15'0 0.0
2016-Jul-19 23:33N 38°13' E 015°15'0 0.0
2016-Jul-19 22:33N 38°13' E 015°15'0 0.0
2016-Jul-19 21:33N 38°13' E 015°15'0 0.0
2016-Jul-19 20:33N 38°13' E 015°15'0 0.0
2016-Jul-19 19:33N 38°13' E 015°15'0 0.0
2016-Jul-19 18:33N 38°13' E 015°15'1 0.7
2016-Jul-19 17:33N 38°13' E 015°16'1212.4
2016-Jul-19 16:33N 38°22' E 015°05'8 8.3
2016-Jul-19 15:33N 38°28' E 014°57'6 6.1
2016-Jul-19 14:29N 38°33' E 014°53'8 9.0
2016-Jul-19 13:33N 38°37' E 015°03'8 8.2
2016-Jul-19 12:33N 38°43' E 015°08'7 6.0
2016-Jul-19 11:27N 38°48' E 015°14'3 3.3
2016-Jul-19 10:30N 38°46' E 015°11'9 9.4
2016-Jul-19 09:32N 38°38' E 015°05'11 9.6
2016-Jul-19 08:24N 38°33' E 014°52'6 7.6
2016-Jul-19 07:33N 38°28' E 014°57'4 4.0
2016-Jul-19 06:33N 38°25' E 014°60'16 8.2
2016-Jul-19 04:34N 38°13' E 015°15'0 0.0
2016-Jul-19 03:34N 38°13' E 015°15'0 0.0
2016-Jul-19 02:33N 38°13' E 015°15'0 0.0
2016-Jul-19 01:33N 38°13' E 015°15'0 0.0
2016-Jul-19 00:34N 38°13' E 015°15'0 0.0
2016-Jul-18 23:34N 38°13' E 015°15'0 0.0
2016-Jul-18 22:34N 38°13' E 015°15'0 0.0
2016-Jul-18 21:33N 38°13' E 015°15'0 0.0
2016-Jul-18 20:34N 38°13' E 015°15'0 0.0
2016-Jul-18 19:33N 38°13' E 015°15'0 0.0
2016-Jul-18 18:33N 38°13' E 015°15'0 0.5
2016-Jul-18 17:34N 38°13' E 015°15'1212.3
2016-Jul-18 16:33N 38°22' E 015°05'8 8.3
2016-Jul-18 15:32N 38°28' E 014°57'5 5.1
2016-Jul-18 14:33N 38°33' E 014°55'16 3.6
2016-Jul-18 10:10N 38°33' E 014°35'14 7.7
2016-Jul-18 08:22N 38°33' E 014°53'7 8.1
2016-Jul-18 07:33N 38°29' E 014°59'4 4.0
2016-Jul-18 06:33N 38°25' E 014°59'1413.6
2016-Jul-18 05:33N 38°18' E 015°13'5 4.9
2016-Jul-18 04:33N 38°13' E 015°15'0 0.0
2016-Jul-18 03:33N 38°13' E 015°15'0 0.0
2016-Jul-18 02:33N 38°13' E 015°15'0 0.0
2016-Jul-18 01:33N 38°13' E 015°15'0 0.0
2016-Jul-18 00:33N 38°13' E 015°15'0 0.0
2016-Jul-17 23:33N 38°13' E 015°15'0 0.0
2016-Jul-17 22:33N 38°13' E 015°15'0 0.0
2016-Jul-17 21:33N 38°13' E 015°15'0 0.0
2016-Jul-17 20:33N 38°13' E 015°15'0 0.0
2016-Jul-17 19:33N 38°13' E 015°15'0 0.0
2016-Jul-17 18:33N 38°13' E 015°15'2 1.7
2016-Jul-17 17:33N 38°14' E 015°17'1313.2
2016-Jul-17 16:33N 38°22' E 015°04'8 7.7
2016-Jul-17 15:33N 38°28' E 014°57'4 4.1
2016-Jul-17 14:33N 38°32' E 014°56'3 0.5
2016-Jul-17 08:28N 38°33' E 014°53'6 6.9
2016-Jul-17 07:33N 38°28' E 014°58'3 3.2
2016-Jul-17 06:33N 38°25' E 014°58'  
Track history (hours):
 
Tides and Currents Weather Stations Pressure Air Temp Water Temp Dewpoint Dewpoint Depression Visibility Wind Speed Wind Dir Waves Ship Positions

Pietro Novelli

Last reported at 2016-Jul-27 05:34 UTC. Time now 2016-Jul-27 05:46 UTC.
Position N 38°18' E 015°14'.

Length 91 m; draft 3.7 m.

Type: Ship. MMSI: 247000300.

Date/timePositionNaut miles runAvg speedWind from/ knotsBaromVisibWave heightAir tempDewpointWater temp
2016-Jul-27 05:34N 38°18' E 015°14'5 5.3
2016-Jul-27 04:33N 38°13' E 015°15'0 0.0
2016-Jul-27 03:33N 38°13' E 015°15'0 0.0
2016-Jul-27 02:32N 38°13' E 015°15'0 0.0
2016-Jul-27 01:32N 38°13' E 015°15'0 0.0
2016-Jul-27 00:32N 38°13' E 015°15'0 0.0
2016-Jul-26 23:25N 38°13' E 015°15'0 0.0
2016-Jul-26 22:16N 38°13' E 015°15'0 0.0
2016-Jul-26 21:33N 38°13' E 015°15'0 0.0
2016-Jul-26 20:33N 38°13' E 015°15'0 0.0
2016-Jul-26 18:31N 38°13' E 015°15'0 0.5
2016-Jul-26 17:33N 38°13' E 015°15'1212.3
2016-Jul-26 16:33N 38°22' E 015°05'8 8.5
2016-Jul-26 15:33N 38°28' E 014°57'6 5.8
2016-Jul-26 14:33N 38°33' E 014°53'7 7.4
2016-Jul-26 13:33N 38°36' E 015°02'5 5.4
2016-Jul-26 12:32N 38°41' E 015°06'10 9.7
2016-Jul-26 11:33N 38°48' E 015°14'3 3.1
2016-Jul-26 10:33N 38°46' E 015°11'10 9.7
2016-Jul-26 09:33N 38°38' E 015°05'1110.7
2016-Jul-26 08:33N 38°33' E 014°52'6 6.0
2016-Jul-26 07:28N 38°28' E 014°57'4 4.0
2016-Jul-26 06:33N 38°25' E 014°59'1413.7
2016-Jul-26 05:33N 38°18' E 015°14'5 0.4
2016-Jul-25 18:26N 38°13' E 015°15'3 3.2
2016-Jul-25 17:33N 38°16' E 015°16'1413.8
2016-Jul-25 16:33N 38°24' E 015°02'6 5.5
2016-Jul-25 15:33N 38°28' E 014°57'7 6.5
2016-Jul-25 14:33N 38°33' E 014°52'0 0.0
2016-Jul-25 08:34N 38°33' E 014°52'6 6.1
2016-Jul-25 07:30N 38°28' E 014°57'4 3.7
2016-Jul-25 06:33N 38°25' E 014°59'1413.9
2016-Jul-25 05:33N 38°18' E 015°14'5 4.7
2016-Jul-25 04:33N 38°13' E 015°15'0 0.0
2016-Jul-25 03:33N 38°13' E 015°15'0 0.0
2016-Jul-25 02:33N 38°13' E 015°15'0 0.0
2016-Jul-25 01:33N 38°13' E 015°15'0 0.0
2016-Jul-25 00:33N 38°13' E 015°15'0 0.0
2016-Jul-24 23:33N 38°13' E 015°15'0 0.0
2016-Jul-24 22:33N 38°13' E 015°15'0 0.0
2016-Jul-24 21:34N 38°13' E 015°15'0 0.0
2016-Jul-24 20:33N 38°13' E 015°15'0 0.0
2016-Jul-24 19:33N 38°13' E 015°15'0 0.0
2016-Jul-24 18:33N 38°13' E 015°15'2 1.8
2016-Jul-24 17:33N 38°14' E 015°16'1313.1
2016-Jul-24 16:34N 38°23' E 015°03'7 7.1
2016-Jul-24 15:33N 38°28' E 014°58'4 4.0
2016-Jul-24 14:33N 38°32' E 014°57'16 7.3
2016-Jul-24 12:19N 38°33' E 014°36'1113.2
2016-Jul-24 11:29N 38°32' E 014°22'5 5.3
2016-Jul-24 10:33N 38°32' E 014°28'19 9.1
2016-Jul-24 08:27N 38°33' E 014°53'7 7.5
2016-Jul-24 07:33N 38°28' E 014°58'3 3.3
2016-Jul-24 06:33N 38°25' E 014°59'1414.2
2016-Jul-24 05:34N 38°17' E 015°14'4 4.3
2016-Jul-24 04:33N 38°13' E 015°15'0 0.0
2016-Jul-24 03:33N 38°13' E 015°15'0 0.0
2016-Jul-24 02:33N 38°13' E 015°15'0 0.0
2016-Jul-24 01:33N 38°13' E 015°15'0 0.0
2016-Jul-24 00:33N 38°13' E 015°15'0 0.0
2016-Jul-23 23:33N 38°13' E 015°15'0 0.0
2016-Jul-23 22:33N 38°13' E 015°15'0 0.0
2016-Jul-23 21:33N 38°13' E 015°15'0 0.0
2016-Jul-23 20:33N 38°13' E 015°15'0 0.0
2016-Jul-23 19:33N 38°13' E 015°15'0 0.0
2016-Jul-23 18:34N 38°13' E 015°15'1 0.7
2016-Jul-23 17:34N 38°13' E 015°15'1212.4
2016-Jul-23 16:33N 38°22' E 015°05'8 8.3
2016-Jul-23 15:33N 38°28' E 014°57'6 6.3
2016-Jul-23 14:33N 38°33' E 014°53'5 4.7
2016-Jul-23 13:33N 38°33' E 014°47'8 8.5
2016-Jul-23 12:34N 38°33' E 014°36'1110.1
2016-Jul-23 11:29N 38°32' E 014°22'10 9.8
2016-Jul-23 10:27N 38°34' E 014°35'12 9.8
2016-Jul-23 09:15N 38°33' E 014°50'3 3.5
2016-Jul-23 08:26N 38°33' E 014°53'6 5.9
2016-Jul-23 07:29N 38°28' E 014°57'6 6.6
2016-Jul-23 06:33N 38°23' E 015°02'14 7.0
2016-Jul-23 04:33N 38°13' E 015°15'0 0.0
2016-Jul-23 03:33N 38°13' E 015°15'0 0.0
2016-Jul-23 02:33N 38°13' E 015°15'0 0.0
2016-Jul-23 01:33N 38°13' E 015°15'0 0.0
2016-Jul-23 00:33N 38°13' E 015°15'0 0.0
2016-Jul-22 23:33N 38°13' E 015°15'0 0.0
2016-Jul-22 22:33N 38°13' E 015°15'0 0.0
2016-Jul-22 21:33N 38°13' E 015°15'0 0.0
2016-Jul-22 20:33N 38°13' E 015°15'0 0.0
2016-Jul-22 19:33N 38°13' E 015°15'0 0.0
2016-Jul-22 18:33N 38°13' E 015°15'1 0.9
2016-Jul-22 17:33N 38°13' E 015°16'1212.5
2016-Jul-22 16:33N 38°22' E 015°04'8 8.0
2016-Jul-22 15:34N 38°28' E 014°58'5 4.7
2016-Jul-22 14:33N 38°33' E 014°56'5 5.0
2016-Jul-22 13:31N 38°36' E 015°00'7 7.8
2016-Jul-22 12:33N 38°42' E 015°07'9 8.6
2016-Jul-22 11:33N 38°48' E 015°15'3 2.7
2016-Jul-22 10:33N 38°47' E 015°11'10 9.9
2016-Jul-22 09:33N 38°38' E 015°05'10 8.2
2016-Jul-22 08:20N 38°33' E 014°54'5 5.7
2016-Jul-22 07:26N 38°28' E 014°57'20 7.0
2016-Jul-22 04:33N 38°13' E 015°15'0 0.0
2016-Jul-22 03:33N 38°13' E 015°15'0 0.0
2016-Jul-22 02:33N 38°13' E 015°15'0 0.0
2016-Jul-22 01:33N 38°13' E 015°15'0 0.0
2016-Jul-22 00:33N 38°13' E 015°15'0 0.0
2016-Jul-21 23:33N 38°13' E 015°15'0 0.0
2016-Jul-21 22:33N 38°13' E 015°15'0 0.0
2016-Jul-21 21:33N 38°13' E 015°15'0 0.0
2016-Jul-21 20:33N 38°13' E 015°15'0 0.0
2016-Jul-21 19:33N 38°13' E 015°15'0 0.0
2016-Jul-21 18:33N 38°13' E 015°15'1 1.1
2016-Jul-21 17:33N 38°14' E 015°16'1212.4
2016-Jul-21 16:33N 38°22' E 015°04'8 8.1
2016-Jul-21 15:33N 38°28' E 014°58'5 5.4
2016-Jul-21 14:34N 38°33' E 014°54'6 5.3
2016-Jul-21 13:30N 38°33' E 014°47'9 9.8
2016-Jul-21 12:33N 38°34' E 014°35'1010.5
2016-Jul-21 11:34N 38°32' E 014°22'8 7.9
2016-Jul-21 10:33N 38°33' E 014°32'16 7.9
2016-Jul-21 08:32N 38°33' E 014°52'7 6.6
2016-Jul-21 07:33N 38°28' E 014°57'4 4.0
2016-Jul-21 06:33N 38°25' E 014°60'1413.7
2016-Jul-21 05:33N 38°18' E 015°14'4 4.5
2016-Jul-21 04:33N 38°13' E 015°15'0 0.0
2016-Jul-21 03:27N 38°13' E 015°15'0 0.0
2016-Jul-20 22:16N 38°13' E 015°15'0 0.0
2016-Jul-20 19:33N 38°13' E 015°15'0 0.0
2016-Jul-20 18:33N 38°13' E 015°15'2 1.9
2016-Jul-20 17:33N 38°14' E 015°16'1413.8
2016-Jul-20 16:33N 38°23' E 015°03'7 6.5
2016-Jul-20 15:33N 38°28' E 014°57'18 7.4
2016-Jul-20 13:06N 38°34' E 014°35'0 0.1
2016-Jul-20 10:26N 38°34' E 014°35'17 8.5
2016-Jul-20 08:30N 38°32' E 014°56'5 4.8
2016-Jul-20 07:33N 38°28' E 014°58'3 3.4
2016-Jul-20 06:34N 38°25' E 014°60'1413.4
2016-Jul-20 05:33N 38°18' E 015°14'5 4.6
2016-Jul-20 04:33N 38°13' E 015°15'0 0.0
2016-Jul-20 03:33N 38°13' E 015°15'0 0.0
2016-Jul-20 02:33N 38°13' E 015°15'0 0.0
2016-Jul-20 01:33N 38°13' E 015°15'0 0.0
2016-Jul-20 00:33N 38°13' E 015°15'0 0.0
2016-Jul-19 23:33N 38°13' E 015°15'0 0.0
2016-Jul-19 22:33N 38°13' E 015°15'0 0.0
2016-Jul-19 21:33N 38°13' E 015°15'0 0.0
2016-Jul-19 20:33N 38°13' E 015°15'0 0.0
2016-Jul-19 19:33N 38°13' E 015°15'0 0.0
2016-Jul-19 18:33N 38°13' E 015°15'1 0.7
2016-Jul-19 17:33N 38°13' E 015°16'1212.4
2016-Jul-19 16:33N 38°22' E 015°05'8 8.3
2016-Jul-19 15:33N 38°28' E 014°57'6 6.1
2016-Jul-19 14:29N 38°33' E 014°53'8 9.0
2016-Jul-19 13:33N 38°37' E 015°03'8 8.2
2016-Jul-19 12:33N 38°43' E 015°08'7 6.0
2016-Jul-19 11:27N 38°48' E 015°14'3 3.3
2016-Jul-19 10:30N 38°46' E 015°11'9 9.4
2016-Jul-19 09:32N 38°38' E 015°05'11 9.6
2016-Jul-19 08:24N 38°33' E 014°52'6 7.6
2016-Jul-19 07:33N 38°28' E 014°57'4 4.0
2016-Jul-19 06:33N 38°25' E 014°60'16 8.2
2016-Jul-19 04:34N 38°13' E 015°15'0 0.0
2016-Jul-19 03:34N 38°13' E 015°15'0 0.0
2016-Jul-19 02:33N 38°13' E 015°15'0 0.0
2016-Jul-19 01:33N 38°13' E 015°15'0 0.0
2016-Jul-19 00:34N 38°13' E 015°15'0 0.0
2016-Jul-18 23:34N 38°13' E 015°15'0 0.0
2016-Jul-18 22:34N 38°13' E 015°15'0 0.0
2016-Jul-18 21:33N 38°13' E 015°15'0 0.0
2016-Jul-18 20:34N 38°13' E 015°15'0 0.0
2016-Jul-18 19:33N 38°13' E 015°15'0 0.0
2016-Jul-18 18:33N 38°13' E 015°15'0 0.5
2016-Jul-18 17:34N 38°13' E 015°15'1212.3
2016-Jul-18 16:33N 38°22' E 015°05'8 8.3
2016-Jul-18 15:32N 38°28' E 014°57'5 5.1
2016-Jul-18 14:33N 38°33' E 014°55'16 3.6
2016-Jul-18 10:10N 38°33' E 014°35'14 7.7
2016-Jul-18 08:22N 38°33' E 014°53'7 8.1
2016-Jul-18 07:33N 38°29' E 014°59'4 4.0
2016-Jul-18 06:33N 38°25' E 014°59'1413.6
2016-Jul-18 05:33N 38°18' E 015°13'5 4.9
2016-Jul-18 04:33N 38°13' E 015°15'0 0.0
2016-Jul-18 03:33N 38°13' E 015°15'0 0.0
2016-Jul-18 02:33N 38°13' E 015°15'0 0.0
2016-Jul-18 01:33N 38°13' E 015°15'0 0.0
2016-Jul-18 00:33N 38°13' E 015°15'0 0.0
2016-Jul-17 23:33N 38°13' E 015°15'0 0.0
2016-Jul-17 22:33N 38°13' E 015°15'0 0.0
2016-Jul-17 21:33N 38°13' E 015°15'0 0.0
2016-Jul-17 20:33N 38°13' E 015°15'0 0.0
2016-Jul-17 19:33N 38°13' E 015°15'0 0.0
2016-Jul-17 18:33N 38°13' E 015°15'2 1.7
2016-Jul-17 17:33N 38°14' E 015°17'1313.2
2016-Jul-17 16:33N 38°22' E 015°04'8 7.7
2016-Jul-17 15:33N 38°28' E 014°57'4 4.1
2016-Jul-17 14:33N 38°32' E 014°56'3 0.5
2016-Jul-17 08:28N 38°33' E 014°53'6 6.9
2016-Jul-17 07:33N 38°28' E 014°58'3 3.2
2016-Jul-17 06:33N 38°25' E 014°58'  

Dump ship's entire track history